Kezdőlap
METAR-TAF:

METAR-TAF

Repülőterek :

Maun, Botswana

földrajzi szélesség: 19-59S, földrajzi hosszúság: 023-25E, magasság: 945 m

Jelenlegi meteorológiai megfigyelések

A jelentés 33 perccel ezelõtt készült, 23:00 UTC
Keleti szél 6 kt
Hőmérséklet 15°C
Páratartalom 67%
Légköri nyomás 1019 hPa
Látótávolság 10 km, vagy több
felhőtlen 1500 m magasságban, és nincs gomolyfelhõ

METAR: FBMN 202300Z 08006KT CAVOK 15/09 Q1019

Idő: 01:33 (23:33 UTC)


TAF: hiányzik

Meteorológiai megfigyelések és előrejelzések több, mint 4000 repülőtéren (METAR és TAF jelentéseket).

A térképen piros és sárga pontok jelzik az elérhető meteorológiai állomásokat.

Mozgassa az egeret a pont fölött, hogy megjelenjen az állomás neve.

Azután kattintson az időjárási megfigyelések és előrejelzések megtekintéséhez.

A térkép megváltoztatása: kattintson a fekete keresztel jelölt zöld gombra ráközelítéshez, a vonallal jelölt zöld gombra távolításhoz, vagy a zöld nyilakra a szomszédos térképek eléréséhez.


METAR-TAF: